sensor_id;sensor_type;location;lat;lon;timestamp;pressure;altitude;pressure_sealevel;temperature;humidity
39699;BME280;25372;50.582;12.250;2022-10-19T00:02:12;100848.84;;;10.85;100.00
39699;BME280;25372;50.582;12.250;2022-10-19T00:12:35;100856.59;;;10.44;100.00
39699;BME280;25372;50.582;12.250;2022-10-19T00:22:56;100842.03;;;10.22;100.00
39699;BME280;25372;50.582;12.250;2022-10-19T00:33:18;100851.59;;;9.88;100.00
39699;BME280;25372;50.582;12.250;2022-10-19T00:43:55;100866.81;;;9.68;100.00
39699;BME280;25372;50.582;12.250;2022-10-19T00:54:18;100849.72;;;9.45;100.00
39699;BME280;25372;50.582;12.250;2022-10-19T01:04:43;100861.00;;;9.47;100.00
39699;BME280;25372;50.582;12.250;2022-10-19T01:15:16;100837.38;;;9.17;100.00
39699;BME280;25372;50.582;12.250;2022-10-19T01:25:48;100832.19;;;9.07;100.00
39699;BME280;25372;50.582;12.250;2022-10-19T01:36:20;100834.41;;;8.84;100.00
39699;BME280;25372;50.582;12.250;2022-10-19T01:46:43;100832.25;;;8.70;100.00
39699;BME280;25372;50.582;12.250;2022-10-19T01:57:12;100836.06;;;8.58;100.00
39699;BME280;25372;50.582;12.250;2022-10-19T02:07:35;100839.28;;;8.51;100.00
39699;BME280;25372;50.582;12.250;2022-10-19T02:17:59;100837.97;;;8.93;100.00
39699;BME280;25372;50.582;12.250;2022-10-19T02:28:22;100833.69;;;8.54;100.00
39699;BME280;25372;50.582;12.250;2022-10-19T02:38:44;100826.56;;;8.65;100.00
39699;BME280;25372;50.582;12.250;2022-10-19T02:49:06;100835.69;;;8.98;100.00
39699;BME280;25372;50.582;12.250;2022-10-19T02:59:30;100834.72;;;8.99;100.00
39699;BME280;25372;50.582;12.250;2022-10-19T03:09:51;100836.47;;;9.08;100.00
39699;BME280;25372;50.582;12.250;2022-10-19T03:20:14;100817.97;;;9.08;100.00
39699;BME280;25372;50.582;12.250;2022-10-19T03:30:35;100821.47;;;9.09;100.00
39699;BME280;25372;50.582;12.250;2022-10-19T03:40:57;100818.25;;;9.05;100.00
39699;BME280;25372;50.582;12.250;2022-10-19T03:51:19;100838.84;;;9.12;100.00
39699;BME280;25372;50.582;12.250;2022-10-19T04:01:43;100829.19;;;9.20;100.00
39699;BME280;25372;50.582;12.250;2022-10-19T04:12:05;100845.56;;;9.24;100.00
39699;BME280;25372;50.582;12.250;2022-10-19T04:22:27;100845.94;;;9.11;100.00
39699;BME280;25372;50.582;12.250;2022-10-19T04:32:48;100856.97;;;9.24;100.00
39699;BME280;25372;50.582;12.250;2022-10-19T04:43:10;100865.28;;;9.12;100.00
39699;BME280;25372;50.582;12.250;2022-10-19T04:53:32;100870.66;;;9.20;100.00
39699;BME280;25372;50.582;12.250;2022-10-19T05:03:56;100865.50;;;9.18;100.00
39699;BME280;25372;50.582;12.250;2022-10-19T05:14:22;100866.28;;;9.29;100.00
39699;BME280;25372;50.582;12.250;2022-10-19T05:24:45;100860.66;;;9.14;100.00
39699;BME280;25372;50.582;12.250;2022-10-19T05:35:06;100875.72;;;9.13;100.00
39699;BME280;25372;50.582;12.250;2022-10-19T05:45:28;100859.78;;;8.95;100.00
39699;BME280;25372;50.582;12.250;2022-10-19T05:55:49;100888.03;;;9.04;100.00
39699;BME280;25372;50.582;12.250;2022-10-19T06:06:11;100887.22;;;9.22;100.00
39699;BME280;25372;50.582;12.250;2022-10-19T06:16:33;100899.03;;;9.28;100.00
39699;BME280;25372;50.582;12.250;2022-10-19T06:26:55;100901.13;;;9.24;100.00
39699;BME280;25372;50.582;12.250;2022-10-19T06:37:16;100903.66;;;8.88;100.00
39699;BME280;25372;50.582;12.250;2022-10-19T06:47:39;100913.38;;;9.43;100.00
39699;BME280;25372;50.582;12.250;2022-10-19T06:57:59;100923.78;;;9.90;99.30
39699;BME280;25372;50.582;12.250;2022-10-19T07:08:22;100923.03;;;10.24;95.94
39699;BME280;25372;50.582;12.250;2022-10-19T07:18:44;100929.50;;;10.48;97.80
39699;BME280;25372;50.582;12.250;2022-10-19T07:29:06;100931.28;;;10.66;94.00
39699;BME280;25372;50.582;12.250;2022-10-19T07:39:27;100952.88;;;10.79;90.46
39699;BME280;25372;50.582;12.250;2022-10-19T07:49:49;100946.09;;;10.76;92.06
39699;BME280;25372;50.582;12.250;2022-10-19T08:00:11;100955.03;;;10.75;89.88
39699;BME280;25372;50.582;12.250;2022-10-19T08:10:33;100970.09;;;11.01;94.75
39699;BME280;25372;50.582;12.250;2022-10-19T08:20:54;100969.28;;;11.09;89.05
39699;BME280;25372;50.582;12.250;2022-10-19T08:31:18;100982.91;;;10.79;90.41
39699;BME280;25372;50.582;12.250;2022-10-19T08:41:52;100984.94;;;11.20;91.06
39699;BME280;25372;50.582;12.250;2022-10-19T08:52:18;100970.81;;;11.11;88.39
39699;BME280;25372;50.582;12.250;2022-10-19T09:02:53;100968.09;;;11.46;89.32
39699;BME280;25372;50.582;12.250;2022-10-19T09:13:26;100965.50;;;11.71;87.08
39699;BME280;25372;50.582;12.250;2022-10-19T09:23:53;100967.00;;;11.90;84.99
39699;BME280;25372;50.582;12.250;2022-10-19T09:34:22;100965.25;;;12.15;82.13
39699;BME280;25372;50.582;12.250;2022-10-19T09:44:45;100969.16;;;11.78;82.99
39699;BME280;25372;50.582;12.250;2022-10-19T09:55:19;100963.25;;;12.42;76.05
39699;BME280;25372;50.582;12.250;2022-10-19T10:05:43;100980.34;;;12.14;77.47
39699;BME280;25372;50.582;12.250;2022-10-19T10:16:09;100973.41;;;12.13;76.91
39699;BME280;25372;50.582;12.250;2022-10-19T10:26:31;100982.50;;;12.27;77.56
39699;BME280;25372;50.582;12.250;2022-10-19T10:36:59;100974.38;;;12.37;77.36
39699;BME280;25372;50.582;12.250;2022-10-19T10:47:21;100963.22;;;13.14;72.99
39699;BME280;25372;50.582;12.250;2022-10-19T10:57:45;100978.69;;;12.54;75.35
39699;BME280;25372;50.582;12.250;2022-10-19T11:08:16;100962.13;;;11.44;77.11
39699;BME280;25372;50.582;12.250;2022-10-19T11:18:42;100982.00;;;11.31;72.98
39699;BME280;25372;50.582;12.250;2022-10-19T11:29:17;100976.69;;;12.07;74.08
39699;BME280;25372;50.582;12.250;2022-10-19T11:39:52;100976.34;;;12.51;68.69
39699;BME280;25372;50.582;12.250;2022-10-19T11:50:26;100973.69;;;12.60;68.36
39699;BME280;25372;50.582;12.250;2022-10-19T12:00:55;100969.28;;;11.43;70.22
39699;BME280;25372;50.582;12.250;2022-10-19T12:11:25;100949.66;;;11.44;72.12
39699;BME280;25372;50.582;12.250;2022-10-19T12:21:50;100947.47;;;12.24;69.58
39699;BME280;25372;50.582;12.250;2022-10-19T12:32:13;100949.63;;;12.36;66.59
39699;BME280;25372;50.582;12.250;2022-10-19T12:42:41;100945.47;;;12.01;64.15
39699;BME280;25372;50.582;12.250;2022-10-19T12:53:21;100942.59;;;11.69;68.03
39699;BME280;25372;50.582;12.250;2022-10-19T13:03:44;100947.41;;;11.66;72.59
39699;BME280;25372;50.582;12.250;2022-10-19T13:25:32;100919.09;;;12.16;69.67
39699;BME280;25372;50.582;12.250;2022-10-19T13:36:04;100924.22;;;12.01;66.58
39699;BME280;25372;50.582;12.250;2022-10-19T13:46:41;100909.91;;;11.69;67.13
39699;BME280;25372;50.582;12.250;2022-10-19T13:57:12;100918.34;;;11.64;67.14
39699;BME280;25372;50.582;12.250;2022-10-19T14:07:45;100906.06;;;11.63;69.64
39699;BME280;25372;50.582;12.250;2022-10-19T14:18:21;100903.94;;;11.67;73.89
39699;BME280;25372;50.582;12.250;2022-10-19T14:28:51;100896.44;;;11.71;68.79
39699;BME280;25372;50.582;12.250;2022-10-19T14:39:21;100898.63;;;11.75;73.27
39699;BME280;25372;50.582;12.250;2022-10-19T14:49:44;100891.59;;;11.33;69.93
39699;BME280;25372;50.582;12.250;2022-10-19T15:00:12;100890.94;;;11.39;73.21
39699;BME280;25372;50.582;12.250;2022-10-19T15:10:40;100878.44;;;11.15;77.09
39699;BME280;25372;50.582;12.250;2022-10-19T15:21:04;100881.53;;;11.02;73.42
39699;BME280;25372;50.582;12.250;2022-10-19T15:31:32;100885.72;;;10.70;77.72
39699;BME280;25372;50.582;12.250;2022-10-19T15:41:53;100871.56;;;10.53;81.95
39699;BME280;25372;50.582;12.250;2022-10-19T15:52:16;100872.31;;;10.37;84.11
39699;BME280;25372;50.582;12.250;2022-10-19T16:02:37;100860.25;;;9.99;86.78
39699;BME280;25372;50.582;12.250;2022-10-19T16:13:00;100860.97;;;9.29;93.19
39699;BME280;25372;50.582;12.250;2022-10-19T16:23:21;100846.53;;;8.40;96.14
39699;BME280;25372;50.582;12.250;2022-10-19T16:33:44;100880.16;;;8.47;96.01
39699;BME280;25372;50.582;12.250;2022-10-19T16:44:05;100883.16;;;8.25;95.28
39699;BME280;25372;50.582;12.250;2022-10-19T16:54:27;100880.69;;;7.94;96.02
39699;BME280;25372;50.582;12.250;2022-10-19T17:04:49;100890.81;;;7.79;96.93
39699;BME280;25372;50.582;12.250;2022-10-19T17:15:11;100900.84;;;7.75;98.50
39699;BME280;25372;50.582;12.250;2022-10-19T17:25:33;100904.59;;;7.53;98.73
39699;BME280;25372;50.582;12.250;2022-10-19T17:36:01;100906.00;;;7.07;100.00
39699;BME280;25372;50.582;12.250;2022-10-19T17:46:25;100918.59;;;6.62;100.00
39699;BME280;25372;50.582;12.250;2022-10-19T17:56:48;100928.97;;;6.54;100.00
39699;BME280;25372;50.582;12.250;2022-10-19T18:07:09;100885.81;;;6.24;100.00
39699;BME280;25372;50.582;12.250;2022-10-19T18:17:31;100924.88;;;6.19;100.00
39699;BME280;25372;50.582;12.250;2022-10-19T18:27:52;100931.13;;;5.74;100.00
39699;BME280;25372;50.582;12.250;2022-10-19T18:38:14;100895.09;;;5.54;100.00
39699;BME280;25372;50.582;12.250;2022-10-19T18:48:36;100910.13;;;5.63;100.00
39699;BME280;25372;50.582;12.250;2022-10-19T18:58:59;100907.25;;;5.22;100.00
39699;BME280;25372;50.582;12.250;2022-10-19T19:09:20;100912.16;;;5.27;100.00
39699;BME280;25372;50.582;12.250;2022-10-19T19:19:42;100885.75;;;5.29;100.00
39699;BME280;25372;50.582;12.250;2022-10-19T19:30:03;100901.66;;;5.16;100.00
39699;BME280;25372;50.582;12.250;2022-10-19T19:40:26;100904.28;;;4.82;100.00
39699;BME280;25372;50.582;12.250;2022-10-19T19:50:47;100911.22;;;4.83;100.00
39699;BME280;25372;50.582;12.250;2022-10-19T20:01:11;100919.81;;;4.51;100.00
39699;BME280;25372;50.582;12.250;2022-10-19T20:11:32;100919.47;;;4.67;100.00
39699;BME280;25372;50.582;12.250;2022-10-19T20:21:54;100924.91;;;4.41;100.00
39699;BME280;25372;50.582;12.250;2022-10-19T20:32:16;100937.88;;;4.20;100.00
39699;BME280;25372;50.582;12.250;2022-10-19T20:42:38;100921.50;;;4.16;100.00
39699;BME280;25372;50.582;12.250;2022-10-19T20:53:01;100927.81;;;4.03;100.00
39699;BME280;25372;50.582;12.250;2022-10-19T21:03:23;100932.66;;;3.96;100.00
39699;BME280;25372;50.582;12.250;2022-10-19T21:13:45;100928.16;;;3.74;100.00
39699;BME280;25372;50.582;12.250;2022-10-19T21:24:10;100922.31;;;3.70;100.00
39699;BME280;25372;50.582;12.250;2022-10-19T21:34:37;100911.56;;;3.62;100.00
39699;BME280;25372;50.582;12.250;2022-10-19T21:44:59;100906.53;;;3.59;100.00
39699;BME280;25372;50.582;12.250;2022-10-19T21:55:20;100892.81;;;3.55;100.00
39699;BME280;25372;50.582;12.250;2022-10-19T22:05:50;100888.19;;;3.83;100.00
39699;BME280;25372;50.582;12.250;2022-10-19T22:16:13;100877.00;;;3.68;100.00
39699;BME280;25372;50.582;12.250;2022-10-19T22:26:37;100881.16;;;3.59;100.00
39699;BME280;25372;50.582;12.250;2022-10-19T22:36:59;100868.50;;;3.53;100.00
39699;BME280;25372;50.582;12.250;2022-10-19T22:47:21;100851.81;;;3.30;100.00
39699;BME280;25372;50.582;12.250;2022-10-19T22:57:42;100857.41;;;3.25;100.00
39699;BME280;25372;50.582;12.250;2022-10-19T23:08:05;100846.47;;;3.07;100.00
39699;BME280;25372;50.582;12.250;2022-10-19T23:18:29;100846.69;;;2.67;100.00
39699;BME280;25372;50.582;12.250;2022-10-19T23:28:51;100853.66;;;2.79;100.00
39699;BME280;25372;50.582;12.250;2022-10-19T23:39:12;100857.03;;;2.82;100.00
39699;BME280;25372;50.582;12.250;2022-10-19T23:49:34;100837.03;;;2.55;100.00
39699;BME280;25372;50.582;12.250;2022-10-19T23:59:55;100835.09;;;2.46;100.00
